TimeEST,TemperatureF,Dew PointF,Humidity,Sea Level PressureIn,VisibilityMPH,Wind Direction,Wind SpeedMPH,Gust SpeedMPH,PrecipitationIn,Events,Conditions,WindDirDegrees,DateUTC
12:56 AM,15.1,3.9,61,29.33,-9999.0,Variable,3.5,18.4,N/A,,Unknown,0,2013-02-01 05:56:00
1:56 AM,15.1,3.9,61,29.35,-9999.0,Variable,5.8,-,N/A,,Unknown,0,2013-02-01 06:56:00
2:56 AM,14.0,1.0,56,29.36,-9999.0,WSW,8.1,18.4,N/A,,Unknown,250,2013-02-01 07:56:00
3:56 AM,12.9,1.0,59,29.37,-9999.0,West,8.1,-,N/A,,Unknown,270,2013-02-01 08:56:00
4:56 AM,10.9,1.0,64,29.40,-9999.0,West,9.2,-,N/A,,Unknown,270,2013-02-01 09:56:00
5:56 AM,9.0,-0.0,67,29.44,-9999.0,Variable,3.5,-,N/A,,Unknown,0,2013-02-01 10:56:00
6:56 AM,8.1,-0.9,67,29.48,-9999.0,Variable,3.5,-,N/A,,Unknown,0,2013-02-01 11:56:00
7:56 AM,8.1,-0.9,67,29.52,-9999.0,Variable,5.8,-,N/A,,Unknown,0,2013-02-01 12:56:00
8:56 AM,8.1,-2.0,64,29.57,-9999.0,NW,9.2,20.7,N/A,,Unknown,310,2013-02-01 13:56:00
9:56 AM,8.1,-2.9,61,29.60,-9999.0,WNW,10.4,23.0,N/A,,Unknown,300,2013-02-01 14:56:00
10:56 AM,9.0,-2.9,59,29.64,-9999.0,Variable,6.9,-,N/A,,Unknown,0,2013-02-01 15:56:00
11:56 AM,10.0,-2.0,58,29.67,-9999.0,NW,9.2,16.1,N/A,,Unknown,310,2013-02-01 16:56:00
12:56 PM,10.9,-0.9,59,29.68,-9999.0,Variable,4.6,17.3,N/A,,Unknown,0,2013-02-01 17:56:00
1:56 PM,10.9,-0.9,59,29.69,-9999.0,Variable,5.8,-,N/A,,Unknown,0,2013-02-01 18:56:00
2:56 PM,10.9,-0.0,61,29.71,-9999.0,Variable,6.9,20.7,N/A,,Unknown,0,2013-02-01 19:56:00
3:56 PM,10.0,-2.0,58,29.73,-9999.0,Variable,6.9,-,N/A,,Unknown,0,2013-02-01 20:56:00
4:56 PM,8.1,-2.0,64,29.75,-9999.0,Variable,5.8,16.1,N/A,,Unknown,0,2013-02-01 21:56:00
5:56 PM,6.1,-2.9,67,29.78,-9999.0,Variable,6.9,23.0,N/A,,Unknown,0,2013-02-01 22:56:00
6:56 PM,5.0,-4.0,66,29.83,-9999.0,NW,9.2,21.9,N/A,,Unknown,310,2013-02-01 23:56:00
7:56 PM,3.9,-4.0,70,29.88,-9999.0,WNW,8.1,-,N/A,,Unknown,300,2013-02-02 00:56:00
8:56 PM,3.9,-4.0,70,29.91,-9999.0,NW,10.4,25.3,N/A,,Unknown,310,2013-02-02 01:56:00
9:56 PM,3.0,-5.1,69,29.93,-9999.0,Variable,6.9,-,N/A,,Unknown,0,2013-02-02 02:56:00
10:56 PM,3.0,-6.0,66,29.94,-9999.0,WNW,8.1,-,N/A,,Unknown,300,2013-02-02 03:56:00
11:56 PM,3.0,-6.0,66,29.95,-9999.0,Variable,5.8,-,N/A,,Unknown,0,2013-02-02 04:56:00